Time;durP1;ratioP1;P1;durP2;ratioP2;P2;SDS_P1;SDS_P2;PMS_P1;PMS_P2;Temp;Humidity;BMP_temperature;BMP_pressure;BME280_temperature;BME280_humidity;BME280_pressure;Samples;Min_cycle;Max_cycle;Signal;HPM_P1;HPM_P2
2021/01/03 00:02:07;;;;;;;11.43;1.65;;;21.50;99.90;;;;;;5057243;23;20110;-76
2021/01/03 00:04:36;;;;;;;9.23;2.20;;;21.40;99.90;;;;;;5048510;28;20021;-76
2021/01/03 00:07:03;;;;;;;13.13;2.45;;;21.30;99.90;;;;;;5048638;28;20504;-76
2021/01/03 00:09:31;;;;;;;10.00;2.25;;;21.40;99.90;;;;;;5043398;28;20048;-76
2021/01/03 00:11:58;;;;;;;5.95;1.67;;;21.40;99.90;;;;;;5056077;23;20061;-76
2021/01/03 00:14:30;;;;;;;8.98;1.60;;;21.50;99.90;;;;;;5048781;28;20025;-76
2021/01/03 00:17:00;;;;;;;12.27;1.58;;;21.40;99.90;;;;;;5030333;28;20041;-76
2021/01/03 00:19:28;;;;;;;9.40;2.15;;;21.40;99.90;;;;;;5050540;28;20033;-76
2021/01/03 00:21:56;;;;;;;9.82;1.85;;;21.50;99.90;;;;;;5047351;28;20116;-77
2021/01/03 00:24:23;;;;;;;12.75;2.33;;;21.60;99.90;;;;;;5049221;28;20025;-77
2021/01/03 00:26:51;;;;;;;6.10;1.73;;;21.80;99.90;;;;;;5048708;28;20056;-77
2021/01/03 00:29:18;;;;;;;11.20;3.20;;;21.90;99.90;;;;;;5085565;22;20084;-78
2021/01/03 00:31:50;;;;;;;9.32;2.10;;;21.90;99.90;;;;;;5062589;28;20725;-77
2021/01/03 00:34:19;;;;;;;4.82;2.10;;;21.90;99.90;;;;;;5056766;28;20028;-77
2021/01/03 00:36:47;;;;;;;6.15;2.53;;;21.90;99.90;;;;;;5066498;28;20036;-77
2021/01/03 00:39:15;;;;;;;10.25;2.67;;;21.90;99.90;;;;;;5067200;28;20021;-77
2021/01/03 00:41:45;;;;;;;11.68;2.97;;;21.90;99.90;;;;;;5064015;28;20063;-76
2021/01/03 00:44:13;;;;;;;7.53;3.30;;;21.90;99.90;;;;;;5048792;28;20036;-78
2021/01/03 00:46:40;;;;;;;5.07;3.22;;;22.10;99.90;;;;;;5065905;28;20051;-79
2021/01/03 00:49:07;;;;;;;9.68;3.72;;;22.20;99.90;;;;;;5073970;28;20033;-79
2021/01/03 00:51:35;;;;;;;8.77;3.83;;;22.30;99.90;;;;;;5072253;28;20024;-78
2021/01/03 00:54:02;;;;;;;6.70;3.60;;;22.30;99.90;;;;;;5074349;28;20105;-79
2021/01/03 00:56:30;;;;;;;8.25;3.70;;;22.40;99.90;;;;;;5072576;28;20017;-78
2021/01/03 00:58:57;;;;;;;8.40;4.35;;;22.40;99.90;;;;;;5056886;28;20059;-78
2021/01/03 01:01:25;;;;;;;8.27;4.20;;;22.60;99.90;;;;;;5079638;22;20045;-78
2021/01/03 01:03:52;;;;;;;8.27;3.92;;;22.60;99.90;;;;;;5055452;28;20024;-79
2021/01/03 01:06:20;;;;;;;7.30;3.92;;;22.50;99.90;;;;;;5054674;28;20029;-79
2021/01/03 01:08:48;;;;;;;8.00;4.45;;;22.50;99.90;;;;;;5064332;28;20033;-79
2021/01/03 01:11:15;;;;;;;9.55;4.90;;;22.70;99.90;;;;;;5050980;28;20036;-79
2021/01/03 01:13:42;;;;;;;13.88;5.70;;;22.70;99.90;;;;;;5052291;28;20068;-79
2021/01/03 01:16:10;;;;;;;11.68;6.40;;;22.80;99.90;;;;;;5054743;28;20028;-79
2021/01/03 01:18:38;;;;;;;10.55;5.55;;;22.90;99.90;;;;;;5049522;28;20503;-78
2021/01/03 01:21:07;;;;;;;9.05;6.50;;;23.00;99.90;;;;;;5054197;28;20044;-79
2021/01/03 01:23:34;;;;;;;6.82;6.20;;;23.10;99.90;;;;;;5052030;28;20025;-79
2021/01/03 01:26:02;;;;;;;10.15;6.15;;;23.30;99.90;;;;;;5054483;28;20522;-79
2021/01/03 01:28:29;;;;;;;9.15;6.07;;;23.40;99.90;;;;;;5052109;28;20029;-79
2021/01/03 01:30:57;;;;;;;9.57;5.88;;;23.30;99.90;;;;;;5055098;28;20044;-78
2021/01/03 01:33:25;;;;;;;10.95;6.15;;;23.30;99.90;;;;;;5051894;28;20035;-78
2021/01/03 01:35:52;;;;;;;9.70;6.88;;;23.10;99.90;;;;;;5053996;28;20017;-78
2021/01/03 01:38:20;;;;;;;6.85;6.15;;;23.00;99.90;;;;;;5051788;28;20029;-78
2021/01/03 01:40:47;;;;;;;12.30;5.32;;;23.00;99.90;;;;;;5054045;28;20017;-77
2021/01/03 01:43:17;;;;;;;9.48;4.07;;;23.00;99.90;;;;;;5048129;28;20028;-77
2021/01/03 01:45:47;;;;;;;12.48;2.83;;;22.90;99.90;;;;;;5053830;28;20021;-76
2021/01/03 01:48:19;;;;;;;11.00;3.75;;;22.90;99.90;;;;;;5043269;28;20447;-75
2021/01/03 01:50:58;;;;;;;9.35;2.78;;;22.80;99.90;;;;;;5044352;28;20048;-74
2021/01/03 01:54:11;;;;;;;9.20;2.88;;;22.80;99.90;;;;;;5047656;28;20102;-77
2021/01/03 01:56:47;;;;;;;11.98;2.85;;;22.70;99.90;;;;;;5020061;28;20037;-75
2021/01/03 01:59:18;;;;;;;16.80;3.35;;;22.60;99.90;;;;;;5049929;28;20056;-75
2021/01/03 02:02:02;;;;;;;11.32;3.72;;;22.60;99.90;;;;;;5067408;23;20057;-75
2021/01/03 02:04:39;;;;;;;6.85;2.28;;;22.50;99.90;;;;;;5089636;22;20048;-74
2021/01/03 02:07:18;;;;;;;7.88;2.78;;;22.60;99.90;;;;;;5030736;28;20083;-74
2021/01/03 02:10:03;;;;;;;6.93;2.45;;;22.60;99.90;;;;;;5048943;22;20463;-75
2021/01/03 02:12:34;;;;;;;;;;;22.80;99.90;;;;;;5050105;28;20068;-74
2021/01/03 02:15:03;;;;;;;9.18;2.08;;;23.00;99.90;;;;;;5051987;28;20354;-75
2021/01/03 02:17:30;;;;;;;14.30;3.88;;;23.20;99.90;;;;;;5051199;28;20024;-75
2021/01/03 02:19:59;;;;;;;9.20;2.72;;;23.30;99.90;;;;;;5067386;23;20045;-74
2021/01/03 02:22:36;;;;;;;8.32;2.88;;;23.30;99.90;;;;;;5048572;28;20029;-74
2021/01/03 02:25:09;;;;;;;10.43;2.60;;;23.60;99.90;;;;;;5052458;28;20029;-74
2021/01/03 02:28:11;;;;;;;11.15;2.95;;;23.80;99.90;;;;;;5049175;28;20043;-75
2021/01/03 02:30:41;;;;;;;8.95;2.47;;;23.80;99.90;;;;;;5037196;28;20111;-75
2021/01/03 02:33:33;;;;;;;9.95;2.38;;;23.70;99.90;;;;;;5048543;28;20109;-74
2021/01/03 02:36:06;;;;;;;7.97;3.10;;;23.50;99.90;;;;;;5054653;23;20144;-75
2021/01/03 02:38:37;;;;;;;9.68;2.40;;;23.40;99.90;;;;;;5031588;28;20033;-75
2021/01/03 02:41:04;;;;;;;8.25;2.50;;;23.30;99.90;;;;;;5052390;28;20056;-75
2021/01/03 02:43:32;;;;;;;5.50;1.88;;;23.40;99.90;;;;;;5036825;28;20108;-75
2021/01/03 02:45:59;;;;;;;6.70;2.17;;;23.70;99.90;;;;;;5030063;28;20095;-75
2021/01/03 02:48:27;;;;;;;7.50;2.58;;;23.90;99.90;;;;;;5030066;28;20033;-75
2021/01/03 02:50:54;;;;;;;5.88;2.08;;;24.10;99.90;;;;;;5031056;28;20095;-75
2021/01/03 02:53:22;;;;;;;10.05;4.00;;;24.20;99.90;;;;;;5029518;28;20509;-74
2021/01/03 02:55:49;;;;;;;3.22;2.08;;;24.20;99.90;;;;;;5015842;28;20026;-74
2021/01/03 02:58:17;;;;;;;5.78;2.70;;;24.30;99.90;;;;;;5011839;28;20087;-74
2021/01/03 03:00:44;;;;;;;9.10;2.92;;;24.30;99.90;;;;;;5032543;28;20025;-74
2021/01/03 03:03:11;;;;;;;7.45;2.20;;;24.20;99.90;;;;;;5028502;28;20116;-74
2021/01/03 03:05:39;;;;;;;5.45;1.35;;;24.10;99.90;;;;;;5030305;28;20026;-74
2021/01/03 03:08:06;;;;;;;5.60;2.00;;;24.20;99.90;;;;;;5028823;23;20044;-74
2021/01/03 03:10:33;;;;;;;8.10;2.08;;;24.20;99.90;;;;;;5035269;28;20063;-73
2021/01/03 03:13:02;;;;;;;6.15;1.60;;;24.30;99.90;;;;;;5030404;28;20051;-73
2021/01/03 03:15:32;;;;;;;6.55;1.52;;;24.30;99.90;;;;;;5036103;28;20032;-73
2021/01/03 03:18:00;;;;;;;3.72;1.60;;;24.30;99.90;;;;;;5030482;28;20040;-73
2021/01/03 03:20:28;;;;;;;9.35;2.03;;;24.40;99.90;;;;;;5036833;28;20030;-73
2021/01/03 03:22:56;;;;;;;5.45;2.05;;;24.50;99.90;;;;;;5041517;28;20386;-76
2021/01/03 03:25:23;;;;;;;5.20;1.90;;;24.60;99.90;;;;;;5049339;28;20032;-75
2021/01/03 03:27:51;;;;;;;3.05;1.50;;;24.60;99.90;;;;;;5038189;28;20044;-76
2021/01/03 03:30:21;;;;;;;4.78;1.30;;;24.60;99.90;;;;;;5035131;28;20042;-75
2021/01/03 03:32:55;;;;;;;5.57;2.13;;;24.70;99.90;;;;;;5035676;28;20053;-76
2021/01/03 03:35:28;;;;;;;3.20;1.58;;;24.80;99.90;;;;;;5032318;28;20056;-75
2021/01/03 03:37:56;;;;;;;6.53;1.60;;;25.00;99.90;;;;;;5032419;28;20109;-76
2021/01/03 03:40:24;;;;;;;8.05;1.77;;;25.10;99.90;;;;;;5032030;28;20108;-82
2021/01/03 03:43:01;;;;;;;5.80;1.90;;;25.30;99.90;;;;;;5031783;28;20026;-76
2021/01/03 03:45:28;;;;;;;4.18;1.45;;;25.40;99.90;;;;;;5031676;28;20026;-77
2021/01/03 03:47:55;;;;;;;5.78;1.30;;;25.60;99.90;;;;;;5031779;28;20442;-81
2021/01/03 03:50:24;;;;;;;7.95;1.35;;;25.70;99.90;;;;;;5034134;28;20029;-81
2021/01/03 03:52:52;;;;;;;2.78;1.52;;;25.60;99.90;;;;;;5044100;28;20025;-82
2021/01/03 03:55:19;;;;;;;3.03;1.20;;;25.80;99.90;;;;;;5052488;28;20140;-81
2021/01/03 03:57:46;;;;;;;5.07;1.08;;;26.10;99.90;;;;;;5050454;28;20025;-82
2021/01/03 04:00:21;;;;;;;3.88;1.38;;;26.10;99.90;;;;;;5051947;28;20025;-81
2021/01/03 04:02:49;;;;;;;9.85;1.52;;;25.90;99.90;;;;;;5050148;28;20036;-83
2021/01/03 04:05:20;;;;;;;5.72;1.60;;;26.10;99.90;;;;;;5046896;28;20520;-82
2021/01/03 04:07:48;;;;;;;8.10;1.38;;;26.20;99.90;;;;;;5069348;23;20184;-82
2021/01/03 04:10:17;;;;;;;4.47;1.08;;;26.10;99.90;;;;;;5085802;22;20060;-83
2021/01/03 04:12:45;;;;;;;6.25;1.98;;;26.20;99.90;;;;;;5085950;23;20059;-83
2021/01/03 04:17:38;;;;;;;4.30;1.35;;;26.20;99.90;;;;;;5075166;23;20052;-83
2021/01/03 04:20:17;;;;;;;5.78;1.33;;;26.20;99.90;;;;;;5033663;28;20075;-82
2021/01/03 04:22:45;;;;;;;5.30;1.20;;;26.20;99.90;;;;;;5049378;28;20021;-82
2021/01/03 04:25:14;;;;;;;6.35;1.35;;;26.20;99.90;;;;;;5068658;22;20164;-82
2021/01/03 04:27:42;;;;;;;7.53;1.85;;;26.00;99.90;;;;;;5072459;28;20514;-84
2021/01/03 04:30:10;;;;;;;6.97;1.30;;;25.90;99.90;;;;;;5036960;28;20539;-79
2021/01/03 04:32:37;;;;;;;6.05;1.73;;;25.70;99.90;;;;;;5053308;28;20057;-80
2021/01/03 04:35:06;;;;;;;4.93;1.77;;;25.50;99.90;;;;;;5054943;28;20116;-81
2021/01/03 04:37:34;;;;;;;6.88;1.27;;;25.40;99.90;;;;;;5053114;28;20095;-79
2021/01/03 04:40:01;;;;;;;13.93;1.92;;;25.00;99.90;;;;;;5055080;28;20017;-81
2021/01/03 04:42:34;;;;;;;6.53;1.67;;;25.00;99.90;;;;;;5075486;23;20056;-81
2021/01/03 04:45:12;;;;;;;4.20;1.30;;;24.90;99.90;;;;;;5069219;28;20104;-80
2021/01/03 04:48:03;;;;;;;5.53;1.15;;;24.90;99.90;;;;;;5072739;28;20059;-79
2021/01/03 04:51:27;;;;;;;5.30;1.67;;;25.00;99.90;;;;;;5048513;28;20051;-79
2021/01/03 04:53:57;;;;;;;5.88;1.65;;;24.90;99.90;;;;;;4948706;28;20027;-81
2021/01/03 04:56:42;;;;;;;6.47;1.40;;;24.70;99.90;;;;;;4952058;29;20023;-79
2021/01/03 04:59:23;;;;;;;6.65;1.52;;;24.70;99.90;;;;;;5017626;28;20033;-79
2021/01/03 05:02:22;;;;;;;7.32;1.45;;;24.80;99.90;;;;;;5030393;28;20029;-80
2021/01/03 05:05:07;;;;;;;7.88;1.65;;;24.70;99.90;;;;;;5038638;28;20024;-81
2021/01/03 05:07:43;;;;;;;9.38;1.98;;;24.60;99.90;;;;;;5043638;28;20021;-81
2021/01/03 05:10:24;;;;;;;4.40;1.30;;;24.50;99.90;;;;;;5053893;28;20135;-79
2021/01/03 05:13:17;;;;;;;6.75;1.40;;;24.40;99.90;;;;;;5053077;28;20045;-79
2021/01/03 05:15:46;;;;;;;5.70;1.52;;;24.20;99.90;;;;;;5076437;23;20076;-79
2021/01/03 05:18:14;;;;;;;7.65;1.63;;;24.20;99.90;;;;;;5070772;28;20066;-80
2021/01/03 05:20:42;;;;;;;5.63;1.73;;;24.20;99.90;;;;;;5072489;28;20020;-80
2021/01/03 05:23:22;;;;;;;6.40;1.42;;;24.20;99.90;;;;;;5056329;28;20036;-79
2021/01/03 05:25:52;;;;;;;4.35;1.35;;;24.00;99.90;;;;;;5056588;28;20048;-79
2021/01/03 05:28:31;;;;;;;5.00;1.42;;;24.00;99.90;;;;;;5054168;28;20405;-80
2021/01/03 05:31:22;;;;;;;4.70;1.48;;;24.00;99.90;;;;;;5054184;28;20155;-77
2021/01/03 05:33:58;;;;;;;3.30;1.20;;;24.00;99.90;;;;;;5046393;28;20116;-79
2021/01/03 05:36:33;;;;;;;4.47;1.48;;;24.20;99.90;;;;;;5052536;28;20025;-89
2021/01/03 05:39:03;;;;;;;8.80;1.48;;;24.20;99.90;;;;;;5034571;28;20094;-87
2021/01/03 05:41:57;;;;;;;6.32;1.83;;;24.10;99.90;;;;;;5050774;28;20036;-87
2021/01/03 05:44:34;;;;;;;5.20;1.50;;;24.10;99.90;;;;;;5053707;28;20060;-87
2021/01/03 05:47:32;;;;;;;9.05;2.13;;;24.20;99.90;;;;;;5051742;28;20032;-87
2021/01/03 05:50:11;;;;;;;4.47;1.20;;;24.20;99.90;;;;;;5052646;28;20044;-88
2021/01/03 05:52:52;;;;;;;4.28;1.35;;;24.10;99.90;;;;;;5052461;28;20033;-89
2021/01/03 05:55:23;;;;;;;6.25;2.13;;;24.20;99.90;;;;;;5040936;28;20564;-89
2021/01/03 05:58:02;;;;;;;6.30;1.83;;;24.10;99.90;;;;;;5047959;28;20044;-89
2021/01/03 06:00:30;;;;;;;7.72;1.67;;;24.10;99.90;;;;;;5032825;28;20026;-88
2021/01/03 06:03:32;;;;;;;5.93;1.70;;;24.10;99.90;;;;;;5045820;28;20123;-91
2021/01/03 06:06:26;;;;;;;5.80;1.60;;;24.10;99.90;;;;;;5051934;28;20067;-89
2021/01/03 06:08:59;;;;;;;7.85;2.25;;;24.00;99.90;;;;;;5044213;28;20051;-88
2021/01/03 06:11:27;;;;;;;6.22;2.00;;;24.00;99.90;;;;;;5051939;28;20091;-89
2021/01/03 06:13:57;;;;;;;5.85;1.48;;;24.10;99.90;;;;;;5052226;28;20536;-90
2021/01/03 06:16:31;;;;;;;4.35;1.63;;;24.10;99.90;;;;;;5092273;22;20060;-89
2021/01/03 06:19:04;;;;;;;6.18;1.45;;;24.10;99.90;;;;;;5063799;22;20049;-88
2021/01/03 06:21:39;;;;;;;5.65;1.70;;;24.20;99.90;;;;;;5071378;28;20025;-95
2021/01/03 06:24:26;;;;;;;7.13;1.35;;;24.10;99.90;;;;;;5079073;23;20052;-90
2021/01/03 06:27:00;;;;;;;5.85;1.60;;;24.10;99.90;;;;;;5056528;28;20432;-90
2021/01/03 06:29:34;;;;;;;7.10;1.57;;;24.30;99.90;;;;;;5073368;28;20040;-94
2021/01/03 06:32:05;;;;;;;6.57;1.80;;;24.40;99.90;;;;;;5001704;23;2282540;-91
2021/01/03 06:34:40;;;;;;;5.10;1.33;;;24.50;99.90;;;;;;5059790;28;20635;-88
2021/01/03 06:37:08;;;;;;;7.15;1.75;;;24.70;99.90;;;;;;5070449;28;20075;-88
2021/01/03 06:39:52;;;;;;;7.70;1.17;;;24.80;99.90;;;;;;5062882;28;20383;-87
2021/01/03 06:42:44;;;;;;;4.93;0.88;;;24.80;99.90;;;;;;5066218;28;20036;-92
2021/01/03 06:45:32;;;;;;;11.35;1.92;;;24.70;99.90;;;;;;5056648;28;20466;-94
2021/01/03 06:48:17;;;;;;;5.22;1.00;;;24.40;99.90;;;;;;5092581;22;20039;-84
2021/01/03 06:51:07;;;;;;;5.43;0.90;;;24.40;99.90;;;;;;5021027;28;20041;-90
2021/01/03 06:53:56;;;;;;;6.22;1.27;;;24.30;99.90;;;;;;5027162;28;20157;-93
2021/01/03 06:56:50;;;;;;;5.72;1.50;;;24.20;99.90;;;;;;5025160;28;20035;-93
2021/01/03 06:59:41;;;;;;;6.43;1.75;;;24.00;99.90;;;;;;5013278;28;20100;-96
2021/01/03 07:02:08;;;;;;;4.72;1.10;;;23.90;99.90;;;;;;5007210;28;20026;-94
2021/01/03 07:04:39;;;;;;;6.05;1.27;;;23.90;99.90;;;;;;5014360;28;20025;-94
2021/01/03 07:07:22;;;;;;;5.80;1.15;;;24.00;99.90;;;;;;5013436;28;20029;-94
2021/01/03 07:10:20;;;;;;;10.90;0.90;;;24.10;99.90;;;;;;4997799;28;20038;-94
2021/01/03 07:12:49;;;;;;;4.22;0.82;;;24.10;99.90;;;;;;5013683;28;20034;-94
2021/01/03 07:15:38;;;;;;;6.30;1.27;;;24.30;99.90;;;;;;5013986;28;20103;-89
2021/01/03 07:18:19;;;;;;;4.90;1.00;;;24.30;99.90;;;;;;4994143;28;20106;-90
2021/01/03 07:20:56;;;;;;;9.00;1.50;;;24.30;99.90;;;;;;5004016;28;20253;-90
2021/01/03 07:23:35;;;;;;;8.02;1.15;;;24.20;99.90;;;;;;5080393;23;20055;-91
2021/01/03 07:26:02;;;;;;;5.68;1.15;;;24.20;99.90;;;;;;5090033;28;20032;-90
2021/01/03 07:28:32;;;;;;;5.57;1.10;;;24.20;99.90;;;;;;5073374;28;20035;-90
2021/01/03 07:31:11;;;;;;;7.60;0.80;;;24.10;99.90;;;;;;5071075;28;20036;-94
2021/01/03 07:33:46;;;;;;;6.05;1.00;;;24.10;99.90;;;;;;5039391;28;20028;-89
2021/01/03 07:36:40;;;;;;;9.07;1.20;;;23.90;99.90;;;;;;5056445;28;20025;-87
2021/01/03 07:39:32;;;;;;;6.05;1.30;;;23.90;99.90;;;;;;5059986;28;20040;-88
2021/01/03 07:42:20;;;;;;;5.00;1.25;;;23.80;99.90;;;;;;5071362;28;20025;-90
2021/01/03 07:44:50;;;;;;;6.28;1.08;;;23.70;99.90;;;;;;5071938;28;20055;-87
2021/01/03 07:47:37;;;;;;;3.30;0.88;;;23.60;99.90;;;;;;5054057;28;20032;-83
2021/01/03 07:50:35;;;;;;;5.45;1.20;;;23.50;99.90;;;;;;5029940;28;20041;-85
2021/01/03 07:53:23;;;;;;;11.40;1.35;;;23.40;99.90;;;;;;5050126;28;20029;-85
2021/01/03 07:55:50;;;;;;;6.78;1.35;;;23.40;99.90;;;;;;5051953;28;20025;-85
2021/01/03 07:58:21;;;;;;;6.85;1.27;;;23.30;99.90;;;;;;5055974;28;20021;-86
2021/01/03 08:01:00;;;;;;;7.28;1.55;;;23.30;99.90;;;;;;5062405;28;20026;-84
2021/01/03 08:03:28;;;;;;;8.98;1.55;;;23.20;99.90;;;;;;5057181;28;20028;-86
2021/01/03 08:06:06;;;;;;;7.68;1.88;;;23.20;99.90;;;;;;5064501;28;20029;-85
2021/01/03 08:08:33;;;;;;;8.15;1.23;;;23.20;99.90;;;;;;5055053;28;20496;-85
2021/01/03 08:11:45;;;;;;;9.18;1.10;;;23.10;99.90;;;;;;5066256;28;20029;-85
2021/01/03 08:14:26;;;;;;;10.00;1.73;;;23.10;99.90;;;;;;5071047;28;20106;-85
2021/01/03 08:17:01;;;;;;;8.40;1.67;;;23.10;99.90;;;;;;5057620;28;20021;-85
2021/01/03 08:19:30;;;;;;;5.75;1.02;;;23.00;99.90;;;;;;5075436;28;20056;-87
2021/01/03 08:22:01;;;;;;;6.43;1.42;;;23.00;99.90;;;;;;5086012;22;20044;-86
2021/01/03 08:24:30;;;;;;;9.60;1.27;;;23.00;99.90;;;;;;5108609;22;20035;-86
2021/01/03 08:27:09;;;;;;;6.97;1.15;;;23.00;99.90;;;;;;5104207;22;20505;-86
2021/01/03 08:32:09;;;;;;;9.90;1.25;;;23.00;99.90;;;;;;5089984;22;20048;-79
2021/01/03 08:34:39;;;;;;;10.68;2.28;;;23.00;99.90;;;;;;5072323;28;20385;-83
2021/01/03 08:37:22;;;;;;;11.50;2.55;;;23.00;99.90;;;;;;5073918;28;20078;-82
2021/01/03 08:39:51;;;;;;;7.90;0.98;;;23.00;99.90;;;;;;5091567;23;20044;-82
2021/01/03 08:43:14;;;;;;;10.52;1.85;;;23.00;99.90;;;;;;5055365;28;20025;-82
2021/01/03 08:45:44;;;;;;;6.25;0.93;;;23.00;99.90;;;;;;5041325;28;20036;-82
2021/01/03 08:48:18;;;;;;;9.07;1.45;;;22.90;99.90;;;;;;5072469;28;20040;-82
2021/01/03 08:50:46;;;;;;;8.05;1.70;;;23.00;99.90;;;;;;5071080;28;20017;-82
2021/01/03 08:53:24;;;;;;;7.65;1.05;;;22.90;99.90;;;;;;5052204;28;20214;-82
2021/01/03 08:56:21;;;;;;;7.13;1.20;;;22.90;99.90;;;;;;5066220;22;20074;-83
2021/01/03 08:58:48;;;;;;;7.88;1.10;;;22.80;99.90;;;;;;5052073;28;20048;-82
2021/01/03 09:01:32;;;;;;;7.03;1.52;;;22.70;99.90;;;;;;5070011;28;20039;-83
2021/01/03 09:04:04;;;;;;;9.13;1.05;;;22.70;99.90;;;;;;5074797;28;20031;-82
2021/01/03 09:06:32;;;;;;;8.73;1.27;;;22.70;99.90;;;;;;5073782;28;20032;-83
2021/01/03 09:09:16;;;;;;;10.27;1.00;;;22.70;99.90;;;;;;5081250;28;20040;-83
2021/01/03 09:11:54;;;;;;;8.43;1.20;;;22.60;99.90;;;;;;5092796;28;20024;-83
2021/01/03 09:14:34;;;;;;;6.65;1.40;;;22.60;99.90;;;;;;5074083;28;20036;-82
2021/01/03 09:17:08;;;;;;;8.55;1.35;;;22.60;99.90;;;;;;5074253;28;20029;-83
2021/01/03 09:19:44;;;;;;;10.63;1.37;;;22.50;99.90;;;;;;5073488;28;20036;-83
2021/01/03 09:22:13;;;;;;;9.32;1.58;;;22.50;99.90;;;;;;5075847;28;20536;-82
2021/01/03 09:24:41;;;;;;;8.73;1.60;;;22.50;99.90;;;;;;5058558;28;20058;-82
2021/01/03 09:27:10;;;;;;;7.95;1.52;;;22.40;99.90;;;;;;5074057;28;20031;-83
2021/01/03 09:29:40;;;;;;;8.30;1.98;;;22.50;99.90;;;;;;5069993;22;20136;-83
2021/01/03 09:32:29;;;;;;;11.13;1.55;;;22.50;99.90;;;;;;5054093;28;20013;-82
2021/01/03 09:35:29;;;;;;;8.40;1.30;;;22.40;99.90;;;;;;5033758;28;20034;-80
2021/01/03 09:38:47;;;;;;;8.93;1.90;;;22.40;99.90;;;;;;5044833;28;20120;-81
2021/01/03 09:41:40;;;;;;;11.15;2.08;;;22.40;99.90;;;;;;5031463;28;20053;-82
2021/01/03 09:44:15;;;;;;;10.38;2.10;;;22.40;99.90;;;;;;5038406;28;20025;-81
2021/01/03 09:47:02;;;;;;;8.48;1.38;;;22.30;99.90;;;;;;5033488;28;20030;-81
2021/01/03 09:49:49;;;;;;;9.00;1.10;;;22.30;99.90;;;;;;5020738;28;20041;-81
2021/01/03 09:52:22;;;;;;;11.98;1.98;;;22.30;99.90;;;;;;5037232;28;20490;-82
2021/01/03 09:54:57;;;;;;;10.30;1.70;;;22.30;99.90;;;;;;5032720;28;20074;-82
2021/01/03 09:57:36;;;;;;;12.57;1.77;;;22.20;99.90;;;;;;5011814;28;20018;-82
2021/01/03 10:00:09;;;;;;;11.43;2.08;;;22.10;99.90;;;;;;5011847;28;20040;-82
2021/01/03 10:02:38;;;;;;;5.70;1.23;;;22.10;99.90;;;;;;5031108;28;20032;-82
2021/01/03 10:05:19;;;;;;;11.27;2.15;;;22.10;99.90;;;;;;5015033;28;20037;-82
2021/01/03 10:07:57;;;;;;;6.68;0.98;;;22.10;99.90;;;;;;5035294;28;20390;-82
2021/01/03 10:10:43;;;;;;;12.38;2.28;;;22.10;99.90;;;;;;5033250;28;20433;-82
2021/01/03 10:13:11;;;;;;;7.22;1.35;;;22.10;99.90;;;;;;5015817;28;20014;-82
2021/01/03 10:15:39;;;;;;;12.05;1.77;;;22.10;99.90;;;;;;5032814;28;20068;-83
2021/01/03 10:18:10;;;;;;;11.30;1.77;;;22.10;99.90;;;;;;5032837;28;20509;-82
2021/01/03 10:20:39;;;;;;;7.60;2.17;;;22.00;99.90;;;;;;5047125;28;20103;-82
2021/01/03 10:23:09;;;;;;;5.82;1.27;;;22.00;99.90;;;;;;5032792;28;20087;-82
2021/01/03 10:25:37;;;;;;;12.35;1.17;;;21.90;99.90;;;;;;5035734;28;20024;-82
2021/01/03 10:28:06;;;;;;;12.20;1.60;;;21.90;99.90;;;;;;5052559;28;20033;-82
2021/01/03 10:30:33;;;;;;;7.43;1.77;;;21.80;99.90;;;;;;5094945;22;20071;-81
2021/01/03 10:33:01;;;;;;;13.35;2.42;;;21.90;99.90;;;;;;5087371;22;20187;-82
2021/01/03 10:35:28;;;;;;;9.38;2.10;;;21.90;99.90;;;;;;5072229;28;20054;-82
2021/01/03 10:37:55;;;;;;;6.43;1.38;;;21.80;99.90;;;;;;5068012;22;20060;-81
2021/01/03 10:40:23;;;;;;;9.93;1.92;;;21.80;99.90;;;;;;5040981;28;20108;-84
2021/01/03 10:42:51;;;;;;;10.98;2.25;;;21.70;99.90;;;;;;5039106;28;20406;-81
2021/01/03 10:45:20;;;;;;;4.43;1.17;;;21.70;99.90;;;;;;5027018;28;20025;-82
2021/01/03 10:47:48;;;;;;;7.25;1.92;;;21.70;99.90;;;;;;5051678;23;20053;-84
2021/01/03 10:50:17;;;;;;;9.30;1.55;;;21.70;99.90;;;;;;5045356;28;20032;-82
2021/01/03 10:52:45;;;;;;;5.90;1.10;;;21.60;99.90;;;;;;5060059;28;20021;-82
2021/01/03 10:55:14;;;;;;;9.52;1.35;;;21.60;99.90;;;;;;5054144;28;20107;-84
2021/01/03 10:57:41;;;;;;;7.07;1.20;;;21.60;99.90;;;;;;5053312;28;20425;-84
2021/01/03 11:00:10;;;;;;;7.60;1.23;;;21.60;99.90;;;;;;5052055;28;20119;-84
2021/01/03 11:02:38;;;;;;;9.38;1.98;;;21.60;99.90;;;;;;5066062;23;21154;-78
2021/01/03 11:05:06;;;;;;;7.35;1.73;;;21.70;99.90;;;;;;5065307;28;20029;-82
2021/01/03 11:07:34;;;;;;;5.65;1.50;;;21.70;99.90;;;;;;5063062;28;20021;-82
2021/01/03 11:10:04;;;;;;;8.98;2.15;;;21.70;99.90;;;;;;5050691;28;20116;-82
2021/01/03 11:12:31;;;;;;;5.07;1.00;;;21.70;99.90;;;;;;5046078;28;20078;-82
2021/01/03 11:14:58;;;;;;;6.47;1.30;;;21.70;99.90;;;;;;5044011;28;20033;-82
2021/01/03 11:17:26;;;;;;;7.72;1.40;;;21.60;99.90;;;;;;5043998;28;20534;-83
2021/01/03 11:19:53;;;;;;;7.85;1.50;;;21.60;99.90;;;;;;5041203;28;20040;-83
2021/01/03 11:22:20;;;;;;;6.60;1.00;;;21.60;99.90;;;;;;5040989;28;20044;-82
2021/01/03 11:24:48;;;;;;;5.35;1.42;;;21.50;99.90;;;;;;5045282;28;20028;-83
2021/01/03 11:27:19;;;;;;;4.03;1.23;;;21.60;99.90;;;;;;5045434;28;20056;-83
2021/01/03 11:29:46;;;;;;;4.85;1.02;;;21.50;99.90;;;;;;5045587;28;20098;-83
2021/01/03 11:32:25;;;;;;;7.68;1.80;;;21.50;99.90;;;;;;5041429;28;20508;-83
2021/01/03 11:34:54;;;;;;;4.85;1.23;;;21.40;99.90;;;;;;5041954;28;20528;-83
2021/01/03 11:37:25;;;;;;;5.63;1.02;;;21.40;99.90;;;;;;5063706;22;20191;-83
2021/01/03 11:39:53;;;;;;;7.63;1.27;;;21.40;99.90;;;;;;5033245;28;20057;-83
2021/01/03 11:42:33;;;;;;;5.22;1.40;;;21.40;99.90;;;;;;5040060;28;20022;-83
2021/01/03 11:45:01;;;;;;;6.32;1.25;;;21.30;99.90;;;;;;5015435;28;20112;-82
2021/01/03 11:47:30;;;;;;;3.63;1.38;;;21.30;99.90;;;;;;5029739;28;20108;-83
2021/01/03 11:49:57;;;;;;;4.65;1.00;;;21.30;99.90;;;;;;5045394;28;20067;-82
2021/01/03 11:52:26;;;;;;;5.05;1.27;;;21.30;99.90;;;;;;5032785;28;20017;-83
2021/01/03 11:54:54;;;;;;;3.10;1.05;;;21.30;99.90;;;;;;5029626;28;20031;-83
2021/01/03 11:57:21;;;;;;;6.18;0.90;;;21.30;99.90;;;;;;5040895;28;20021;-82
2021/01/03 11:59:48;;;;;;;8.52;1.45;;;21.30;99.90;;;;;;5030887;28;20025;-82
2021/01/03 12:02:16;;;;;;;4.45;1.05;;;21.20;99.90;;;;;;5027565;28;20037;-82
2021/01/03 12:04:43;;;;;;;4.93;1.23;;;21.20;99.90;;;;;;5031646;28;20024;-82
2021/01/03 12:07:15;;;;;;;5.38;0.80;;;21.20;99.90;;;;;;5025398;28;20049;-83
2021/01/03 12:09:43;;;;;;;4.38;1.10;;;21.10;99.90;;;;;;5039020;28;20539;-83
2021/01/03 12:12:12;;;;;;;6.13;1.33;;;21.10;99.90;;;;;;5034146;28;20025;-83
2021/01/03 12:14:40;;;;;;;5.97;1.10;;;21.10;99.90;;;;;;5029847;28;20097;-83
2021/01/03 12:17:11;;;;;;;6.97;1.55;;;21.10;99.90;;;;;;5039067;28;20033;-83
2021/01/03 12:19:39;;;;;;;7.82;1.67;;;21.10;99.90;;;;;;5037158;28;20021;-83
2021/01/03 12:22:07;;;;;;;4.93;1.00;;;21.10;99.90;;;;;;5028865;28;20044;-83
2021/01/03 12:24:35;;;;;;;6.07;1.40;;;21.10;99.90;;;;;;5034532;28;20017;-83
2021/01/03 12:27:03;;;;;;;5.15;1.15;;;21.20;99.90;;;;;;5034631;28;20026;-83
2021/01/03 12:29:31;;;;;;;6.97;1.25;;;21.20;99.90;;;;;;5031772;28;20041;-83
2021/01/03 12:32:00;;;;;;;6.05;1.30;;;21.20;99.90;;;;;;5010662;28;20065;-82
2021/01/03 12:34:29;;;;;;;4.15;1.10;;;21.20;99.90;;;;;;5031044;28;20029;-82
2021/01/03 12:37:11;;;;;;;3.90;1.40;;;21.20;99.90;;;;;;5052270;22;20111;-82
2021/01/03 12:39:42;;;;;;;6.22;1.02;;;21.30;99.90;;;;;;5058390;22;20040;-82
2021/01/03 12:42:13;;;;;;;7.70;1.50;;;21.40;99.90;;;;;;5049256;28;20040;-83
2021/01/03 12:44:40;;;;;;;8.10;1.40;;;21.50;99.90;;;;;;5074584;22;20443;-83
2021/01/03 12:47:07;;;;;;;4.72;1.52;;;21.50;99.90;;;;;;5072900;28;20354;-82
2021/01/03 12:49:35;;;;;;;2.80;1.27;;;21.50;99.90;;;;;;5059659;28;20033;-83
2021/01/03 12:52:03;;;;;;;5.60;0.95;;;21.40;99.90;;;;;;5053108;28;20103;-82
2021/01/03 12:54:30;;;;;;;7.75;1.98;;;21.40;99.90;;;;;;5076622;22;20149;-82
2021/01/03 12:56:58;;;;;;;3.78;1.10;;;21.30;99.90;;;;;;5052315;28;20029;-83
2021/01/03 12:59:25;;;;;;;3.53;1.25;;;21.20;99.90;;;;;;5049064;28;20032;-82
2021/01/03 13:01:52;;;;;;;5.13;1.77;;;21.20;99.90;;;;;;5052165;28;20021;-82
2021/01/03 13:04:20;;;;;;;4.30;1.30;;;21.10;99.90;;;;;;5052729;28;20025;-83
2021/01/03 13:06:48;;;;;;;4.30;1.40;;;21.10;99.90;;;;;;5052172;28;20028;-83
2021/01/03 13:09:20;;;;;;;5.32;1.30;;;21.10;99.90;;;;;;5057245;28;20040;-83
2021/01/03 13:11:49;;;;;;;4.82;1.90;;;21.10;99.90;;;;;;5063442;22;20045;-83
2021/01/03 13:14:17;;;;;;;3.08;1.20;;;21.00;99.90;;;;;;5054435;28;20028;-83
2021/01/03 13:16:45;;;;;;;6.25;1.60;;;21.00;99.90;;;;;;5052098;28;20029;-82
2021/01/03 13:19:12;;;;;;;3.28;1.80;;;21.00;99.90;;;;;;5052169;28;20115;-83
2021/01/03 13:21:39;;;;;;;3.92;1.05;;;21.00;99.90;;;;;;5050546;28;20025;-83
2021/01/03 13:24:08;;;;;;;3.80;1.30;;;21.00;99.90;;;;;;5053791;28;20017;-82